createdAt,value
2019-03-03T00:01:31.488Z,83.87
2019-03-03T00:04:00.643Z,83.19
2019-03-03T00:06:29.843Z,83.19
2019-03-03T00:08:59.706Z,83.08
2019-03-03T00:11:28.883Z,83.08
2019-03-03T00:13:58.059Z,82.78
2019-03-03T00:16:27.325Z,82.85
2019-03-03T00:18:56.531Z,82.82
2019-03-03T00:21:25.714Z,82.60
2019-03-03T00:23:54.885Z,82.60
2019-03-03T00:26:24.071Z,82.60
2019-03-03T00:28:53.248Z,82.60
2019-03-03T00:31:25.507Z,82.71
2019-03-03T00:33:54.681Z,82.71
2019-03-03T00:36:26.073Z,83.20
2019-03-03T00:38:56.889Z,83.88
2019-03-03T00:41:28.545Z,84.61
2019-03-03T00:44:05.409Z,84.61
2019-03-03T00:46:39.630Z,84.88
2019-03-03T00:49:10.439Z,85.05
2019-03-03T00:51:44.605Z,85.05
2019-03-03T00:54:24.032Z,85.81
2019-03-03T00:56:54.843Z,85.81
2019-03-03T00:59:41.677Z,85.87
2019-03-03T01:02:12.505Z,86.51
2019-03-03T01:04:43.317Z,86.51
2019-03-03T01:07:16.981Z,87.27
2019-03-03T01:10:02.972Z,87.83
2019-03-03T01:12:33.796Z,87.83
2019-03-03T01:15:19.657Z,89.94
2019-03-03T01:18:02.500Z,89.94
2019-03-03T01:20:33.362Z,90.09
2019-03-03T01:23:16.032Z,89.88
2019-03-03T01:25:45.221Z,89.62
2019-03-03T01:28:14.402Z,89.40
2019-03-03T01:30:43.585Z,89.40
2019-03-03T01:33:13.276Z,89.60
2019-03-03T01:35:42.461Z,89.39
2019-03-03T01:38:11.621Z,89.40
2019-03-03T01:40:40.800Z,89.45
2019-03-03T01:43:09.990Z,89.19
2019-03-03T01:45:39.650Z,89.08
2019-03-03T01:48:08.920Z,88.78
2019-03-03T01:50:38.096Z,88.47
2019-03-03T01:53:07.340Z,88.47
2019-03-03T01:55:36.513Z,88.19
2019-03-03T01:58:05.758Z,88.13
2019-03-03T02:00:34.976Z,87.83
2019-03-03T02:03:04.421Z,87.83
2019-03-03T02:05:33.596Z,87.26
2019-03-03T02:08:03.145Z,87.26
2019-03-03T02:10:32.385Z,86.99
2019-03-03T02:13:01.590Z,87.47
2019-03-03T02:15:30.764Z,87.47
2019-03-03T02:17:59.936Z,87.26
2019-03-03T02:20:29.119Z,87.24
2019-03-03T02:22:58.299Z,87.24
2019-03-03T02:25:27.570Z,87.00
2019-03-03T02:27:56.806Z,86.76
2019-03-03T02:30:26.045Z,86.61
2019-03-03T02:32:55.231Z,86.44
2019-03-03T02:35:24.467Z,86.59
2019-03-03T02:37:53.653Z,86.97
2019-03-03T02:40:22.908Z,87.43
2019-03-03T02:42:52.094Z,87.43
2019-03-03T02:45:21.289Z,87.25
2019-03-03T02:47:50.464Z,87.15
2019-03-03T02:50:19.726Z,87.15
2019-03-03T02:52:48.831Z,87.77
2019-03-03T02:55:18.080Z,87.82
2019-03-03T02:57:47.315Z,88.60
2019-03-03T03:00:24.278Z,90.10
2019-03-03T03:02:55.115Z,90.10
2019-03-03T03:05:39.582Z,91.65
2019-03-03T03:08:19.210Z,92.17
2019-03-03T03:10:52.740Z,92.12
2019-03-03T03:13:32.470Z,92.52
2019-03-03T03:16:12.001Z,93.44
2019-03-03T03:18:59.156Z,93.44
2019-03-03T03:21:35.806Z,94.53
2019-03-03T03:24:15.863Z,95.39
2019-03-03T03:26:55.908Z,98.28
2019-03-03T03:29:26.767Z,98.90
2019-03-03T03:32:00.348Z,98.90
2019-03-03T03:34:31.650Z,99.84
2019-03-03T03:37:18.427Z,100.00
2019-03-03T03:39:49.273Z,100.00
2019-03-03T03:42:20.365Z,100.00
2019-03-03T03:45:08.371Z,100.00
2019-03-03T03:47:41.969Z,100.00
2019-03-03T03:50:22.009Z,100.00
2019-03-03T03:52:58.543Z,100.00
2019-03-03T03:55:35.937Z,100.00
2019-03-03T03:58:06.833Z,100.00
2019-03-03T04:00:37.716Z,100.00
2019-03-03T04:03:24.835Z,100.00
2019-03-03T04:05:58.232Z,100.00
2019-03-03T04:08:31.907Z,100.00
2019-03-03T04:11:14.532Z,100.00
2019-03-03T04:13:48.067Z,100.00
2019-03-03T04:16:27.590Z,100.00
2019-03-03T04:19:16.457Z,100.00
2019-03-03T04:21:55.904Z,100.00
2019-03-03T04:24:38.389Z,100.00
2019-03-03T04:27:14.959Z,100.00
2019-03-03T04:29:54.645Z,100.00
2019-03-03T04:32:31.362Z,100.00
2019-03-03T04:35:07.831Z,100.00
2019-03-03T04:37:41.367Z,100.00
2019-03-03T04:40:12.276Z,100.00
2019-03-03T04:42:43.106Z,100.00
2019-03-03T04:45:14.052Z,100.00
2019-03-03T04:48:00.934Z,100.00
2019-03-03T04:50:46.415Z,100.00
2019-03-03T04:53:17.238Z,100.00
2019-03-03T04:55:50.951Z,100.00
2019-03-03T04:58:24.280Z,100.00
2019-03-03T05:01:10.101Z,100.00
2019-03-03T05:03:40.915Z,100.00
2019-03-03T05:06:17.337Z,100.00
2019-03-03T05:08:48.150Z,100.00
2019-03-03T05:12:03.478Z,100.00
2019-03-03T05:14:34.320Z,100.00
2019-03-03T05:17:05.138Z,100.00
2019-03-03T05:19:34.347Z,100.00
2019-03-03T05:22:03.523Z,100.00
2019-03-03T05:24:34.482Z,100.00
2019-03-03T05:27:03.611Z,100.00
2019-03-03T05:29:32.775Z,100.00
2019-03-03T05:32:01.954Z,100.00
2019-03-03T05:34:31.135Z,100.00
2019-03-03T05:37:01.093Z,100.00
2019-03-03T05:39:30.282Z,100.00
2019-03-03T05:41:59.386Z,100.00
2019-03-03T05:44:28.572Z,100.00
2019-03-03T05:46:57.789Z,100.00
2019-03-03T05:49:26.969Z,100.00
2019-03-03T05:51:56.207Z,100.00
2019-03-03T05:54:25.799Z,100.00
2019-03-03T05:56:55.013Z,100.00
2019-03-03T05:59:24.236Z,100.00
2019-03-03T06:01:53.433Z,100.00
2019-03-03T06:04:22.621Z,100.00
2019-03-03T06:06:52.108Z,100.00
2019-03-03T06:09:23.026Z,100.00
2019-03-03T06:11:52.207Z,100.00
2019-03-03T06:14:21.401Z,100.00
2019-03-03T06:16:50.662Z,100.00
2019-03-03T06:19:19.887Z,100.00
2019-03-03T06:21:49.080Z,100.00
2019-03-03T06:24:18.280Z,100.00
2019-03-03T06:26:47.468Z,100.00
2019-03-03T06:29:16.653Z,100.00
2019-03-03T06:31:45.872Z,100.00
2019-03-03T06:34:15.062Z,100.00
2019-03-03T06:36:44.244Z,100.00
2019-03-03T06:39:13.454Z,100.00
2019-03-03T06:41:43.105Z,100.00
2019-03-03T06:44:12.318Z,100.00
2019-03-03T06:46:43.354Z,100.00
2019-03-03T06:49:12.670Z,100.00
2019-03-03T06:51:41.867Z,100.00
2019-03-03T06:54:11.056Z,100.00
2019-03-03T06:56:40.266Z,100.00
2019-03-03T06:59:09.465Z,100.00
2019-03-03T07:01:38.642Z,100.00
2019-03-03T07:04:07.854Z,100.00
2019-03-03T07:06:37.035Z,100.00
2019-03-03T07:09:07.059Z,100.00
2019-03-03T07:11:36.256Z,100.00
2019-03-03T07:14:05.436Z,100.00
2019-03-03T07:16:34.646Z,100.00
2019-03-03T07:19:03.839Z,100.00
2019-03-03T07:21:33.033Z,100.00
2019-03-03T07:24:02.259Z,100.00
2019-03-03T07:26:31.455Z,100.00
2019-03-03T07:29:00.653Z,100.00
2019-03-03T07:31:30.735Z,100.00
2019-03-03T07:33:59.931Z,100.00
2019-03-03T07:36:29.129Z,100.00
2019-03-03T07:38:58.318Z,100.00
2019-03-03T07:41:27.535Z,100.00
2019-03-03T07:43:56.735Z,100.00
2019-03-03T07:46:25.936Z,100.00
2019-03-03T07:48:55.113Z,100.00
2019-03-03T07:51:24.307Z,100.00
2019-03-03T07:53:53.533Z,100.00
2019-03-03T07:56:22.724Z,100.00
2019-03-03T07:58:51.907Z,100.00
2019-03-03T08:01:21.099Z,100.00
2019-03-03T08:03:50.319Z,100.00
2019-03-03T08:06:19.615Z,100.00
2019-03-03T08:08:48.800Z,100.00
2019-03-03T08:11:17.990Z,100.00
2019-03-03T08:13:47.192Z,100.00
2019-03-03T08:16:16.386Z,100.00
2019-03-03T08:18:45.585Z,100.00
2019-03-03T08:21:14.788Z,100.00
2019-03-03T08:23:43.973Z,100.00
2019-03-03T08:26:13.166Z,100.00
2019-03-03T08:28:42.375Z,100.00
2019-03-03T08:31:11.624Z,100.00
2019-03-03T08:33:40.815Z,100.00
2019-03-03T08:36:10.405Z,100.00
2019-03-03T08:38:39.615Z,100.00
2019-03-03T08:41:08.815Z,100.00
2019-03-03T08:43:39.633Z,100.00
2019-03-03T08:46:26.852Z,100.00
2019-03-03T08:48:57.733Z,100.00
2019-03-03T08:51:43.899Z,100.00
2019-03-03T08:54:23.487Z,100.00
2019-03-03T08:57:10.379Z,100.00
2019-03-03T08:59:43.834Z,100.00
2019-03-03T09:02:26.424Z,100.00
2019-03-03T09:04:57.298Z,100.00
2019-03-03T09:07:28.106Z,100.00
2019-03-03T09:10:04.985Z,100.00
2019-03-03T09:12:41.968Z,100.00
2019-03-03T09:15:18.929Z,100.00
2019-03-03T09:17:49.757Z,100.00
2019-03-03T09:20:26.313Z,100.00
2019-03-03T09:23:06.218Z,100.00
2019-03-03T09:25:37.053Z,100.00
2019-03-03T09:28:11.325Z,100.00
2019-03-03T09:30:58.515Z,100.00
2019-03-03T09:33:36.755Z,100.00
2019-03-03T09:36:10.459Z,100.00
2019-03-03T09:38:46.806Z,100.00
2019-03-03T09:41:18.090Z,100.00
2019-03-03T09:43:51.630Z,100.00
2019-03-03T09:46:22.453Z,100.00
2019-03-03T09:49:09.660Z,100.00
2019-03-03T09:51:46.350Z,100.00
2019-03-03T09:54:17.203Z,100.00
2019-03-03T09:56:48.013Z,100.00
2019-03-03T09:59:33.975Z,100.00
2019-03-03T10:02:07.767Z,100.00
2019-03-03T10:04:54.849Z,100.00
2019-03-03T10:07:25.687Z,100.00
2019-03-03T10:09:58.932Z,100.00
2019-03-03T10:12:38.802Z,100.00
2019-03-03T10:15:17.386Z,100.00
2019-03-03T10:17:53.811Z,100.00
2019-03-03T10:20:30.136Z,100.00
2019-03-03T10:23:00.975Z,100.00
2019-03-03T10:25:34.720Z,100.00
2019-03-03T10:28:11.724Z,100.00
2019-03-03T10:30:42.655Z,100.00
2019-03-03T10:33:13.486Z,100.00
2019-03-03T10:35:44.408Z,100.00
2019-03-03T10:38:16.900Z,100.00
2019-03-03T10:40:47.802Z,100.00
2019-03-03T10:43:18.644Z,100.00
2019-03-03T10:45:58.391Z,100.00
2019-03-03T10:48:44.323Z,100.00
2019-03-03T10:51:21.022Z,100.00
2019-03-03T10:54:08.093Z,100.00
2019-03-03T10:56:38.986Z,100.00
2019-03-03T10:59:26.158Z,100.00
2019-03-03T11:02:09.107Z,100.00
2019-03-03T11:04:51.871Z,100.00
2019-03-03T11:07:22.928Z,100.00
2019-03-03T11:09:53.779Z,100.00
2019-03-03T11:12:42.875Z,100.00
2019-03-03T11:15:18.964Z,100.00
2019-03-03T11:18:04.854Z,100.00
2019-03-03T11:20:50.948Z,100.00
2019-03-03T11:23:37.922Z,100.00
2019-03-03T11:26:11.224Z,100.00
2019-03-03T11:28:56.853Z,100.00
2019-03-03T11:31:43.771Z,100.00
2019-03-03T11:34:31.039Z,100.00
2019-03-03T11:37:14.183Z,100.00
2019-03-03T11:39:51.217Z,100.00
2019-03-03T11:42:22.679Z,100.00
2019-03-03T11:44:59.293Z,100.00
2019-03-03T11:47:30.141Z,100.00
2019-03-03T11:50:06.666Z,100.00
2019-03-03T11:52:40.243Z,100.00
2019-03-03T11:55:26.580Z,100.00
2019-03-03T11:57:57.637Z,100.00
2019-03-03T12:00:34.082Z,100.00
2019-03-03T12:03:20.861Z,100.00
2019-03-03T12:06:00.687Z,100.00
2019-03-03T12:08:37.545Z,100.00
2019-03-03T12:11:17.177Z,100.00
2019-03-03T12:14:07.374Z,100.00
2019-03-03T12:17:02.274Z,100.00
2019-03-03T12:19:36.030Z,100.00
2019-03-03T12:22:17.643Z,100.00
2019-03-03T12:25:03.636Z,100.00
2019-03-03T12:27:46.348Z,100.00
2019-03-03T12:30:17.208Z,100.00
2019-03-03T12:32:50.616Z,100.00
2019-03-03T12:35:27.369Z,100.00
2019-03-03T12:40:52.037Z,100.00
2019-03-03T12:43:22.877Z,100.00
2019-03-03T12:45:59.504Z,100.00
2019-03-03T12:48:46.671Z,100.00
2019-03-03T12:51:17.521Z,100.00
2019-03-03T12:53:48.351Z,100.00
2019-03-03T12:56:19.203Z,100.00
2019-03-03T12:58:50.050Z,100.00
2019-03-03T13:01:23.872Z,100.00
2019-03-03T13:04:11.550Z,100.00
2019-03-03T13:06:48.438Z,100.00
2019-03-03T13:09:23.448Z,100.00
2019-03-03T13:11:54.312Z,100.00
2019-03-03T13:14:25.143Z,100.00
2019-03-03T13:17:01.879Z,100.00
2019-03-03T13:19:32.681Z,100.00
2019-03-03T13:22:12.535Z,100.00
2019-03-03T13:24:46.183Z,100.00
2019-03-03T13:27:17.302Z,100.00
2019-03-03T13:29:53.906Z,100.00
2019-03-03T13:32:24.739Z,100.00
2019-03-03T13:35:13.903Z,100.00
2019-03-03T13:38:11.495Z,100.00
2019-03-03T13:40:58.513Z,100.00
2019-03-03T13:43:28.379Z,100.00
2019-03-03T13:45:57.759Z,100.00
2019-03-03T13:48:26.938Z,100.00
2019-03-03T13:50:56.225Z,100.00
2019-03-03T13:53:25.648Z,100.00
2019-03-03T13:55:54.843Z,100.00
2019-03-03T13:58:24.110Z,100.00
2019-03-03T14:00:53.315Z,100.00
2019-03-03T14:03:22.682Z,100.00
2019-03-03T14:05:51.921Z,100.00
2019-03-03T14:08:21.038Z,100.00
2019-03-03T14:10:50.503Z,100.00
2019-03-03T14:13:19.972Z,100.00
2019-03-03T14:15:49.211Z,100.00
2019-03-03T14:18:18.591Z,99.91
2019-03-03T14:20:47.799Z,100.00
2019-03-03T14:23:16.976Z,99.73
2019-03-03T14:25:46.277Z,99.27
2019-03-03T14:28:15.698Z,98.45
2019-03-03T14:30:44.953Z,98.21
2019-03-03T14:33:14.133Z,98.04
2019-03-03T14:35:43.340Z,97.05
2019-03-03T14:38:12.496Z,97.05
2019-03-03T14:40:41.686Z,96.61
2019-03-03T14:43:10.920Z,96.28
2019-03-03T14:45:40.110Z,96.28
2019-03-03T14:48:09.301Z,96.06
2019-03-03T14:50:38.655Z,95.91
2019-03-03T14:53:07.868Z,95.72
2019-03-03T14:55:37.065Z,95.33
2019-03-03T14:58:06.287Z,95.33
2019-03-03T15:00:36.301Z,95.18
2019-03-03T15:03:07.542Z,95.26
2019-03-03T15:05:36.724Z,95.62
2019-03-03T15:08:06.162Z,96.32
2019-03-03T15:10:35.403Z,96.90
2019-03-03T15:13:04.770Z,97.56
2019-03-03T15:15:37.520Z,98.23
2019-03-03T15:18:06.932Z,98.36
2019-03-03T15:20:36.487Z,98.29
2019-03-03T15:23:05.735Z,97.33
2019-03-03T15:25:34.988Z,96.14
2019-03-03T15:28:04.360Z,95.69
2019-03-03T15:30:33.534Z,95.69
2019-03-03T15:33:02.783Z,95.26
2019-03-03T15:35:31.965Z,94.39
2019-03-03T15:38:01.133Z,93.92
2019-03-03T15:40:30.511Z,93.82
2019-03-03T15:42:59.812Z,93.25
2019-03-03T15:45:29.949Z,93.26
2019-03-03T15:47:59.151Z,92.96
2019-03-03T15:50:28.487Z,91.37
2019-03-03T15:52:57.693Z,91.37
2019-03-03T15:55:28.711Z,91.30
2019-03-03T15:57:57.904Z,90.74
2019-03-03T16:00:35.369Z,89.98
2019-03-03T16:03:05.177Z,89.86
2019-03-03T16:05:34.346Z,89.86
2019-03-03T16:08:03.546Z,89.67
2019-03-03T16:10:32.741Z,89.67
2019-03-03T16:13:03.769Z,89.39
2019-03-03T16:15:32.829Z,89.10
2019-03-03T16:18:02.074Z,88.93
2019-03-03T16:20:31.266Z,88.93
2019-03-03T16:23:00.861Z,88.74
2019-03-03T16:25:30.207Z,88.64
2019-03-03T16:27:59.432Z,88.38
2019-03-03T16:30:28.533Z,88.61
2019-03-03T16:32:57.699Z,88.04
2019-03-03T16:35:27.050Z,87.85
2019-03-03T16:37:56.541Z,87.86
2019-03-03T16:40:26.593Z,87.76
2019-03-03T16:43:04.472Z,87.40
2019-03-03T16:45:28.897Z,87.00
2019-03-03T16:47:58.910Z,87.00
2019-03-03T16:50:29.864Z,87.29
2019-03-03T16:52:59.608Z,87.26
2019-03-03T16:55:28.857Z,87.08
2019-03-03T16:57:58.068Z,87.41
2019-03-03T17:00:30.464Z,87.60
2019-03-03T17:03:00.638Z,87.30
2019-03-03T17:05:30.567Z,87.30
2019-03-03T17:08:00.621Z,87.42
2019-03-03T17:10:29.876Z,87.08
2019-03-03T17:12:59.082Z,87.10
2019-03-03T17:15:29.715Z,87.17
2019-03-03T17:17:58.908Z,86.96
2019-03-03T17:20:28.087Z,86.78
2019-03-03T17:22:57.260Z,86.56
2019-03-03T17:25:30.561Z,86.25
2019-03-03T17:28:00.272Z,86.22
2019-03-03T17:30:29.711Z,85.70
2019-03-03T17:32:58.881Z,85.68
2019-03-03T17:35:29.110Z,85.14
2019-03-03T17:37:58.330Z,85.11
2019-03-03T17:40:28.244Z,84.94
2019-03-03T17:42:57.450Z,84.93
2019-03-03T17:45:26.631Z,84.93
2019-03-03T17:47:55.808Z,84.34
2019-03-03T17:50:29.432Z,84.34
2019-03-03T17:52:58.627Z,83.76
2019-03-03T17:55:28.009Z,84.48
2019-03-03T17:57:57.363Z,84.48
2019-03-03T18:00:42.047Z,85.55
2019-03-03T18:03:11.230Z,88.05
2019-03-03T18:05:41.221Z,88.05
2019-03-03T18:08:10.419Z,88.21
2019-03-03T18:10:39.622Z,89.17
2019-03-03T18:13:08.821Z,89.17
2019-03-03T18:15:38.002Z,89.45
2019-03-03T18:18:07.187Z,89.45
2019-03-03T18:20:36.363Z,89.54
2019-03-03T18:23:05.584Z,89.41
2019-03-03T18:25:35.231Z,89.22
2019-03-03T18:28:04.413Z,89.07
2019-03-03T18:30:33.594Z,88.65
2019-03-03T18:33:03.253Z,88.65
2019-03-03T18:35:32.467Z,88.26
2019-03-03T18:38:01.698Z,88.44
2019-03-03T18:40:30.971Z,88.59
2019-03-03T18:43:00.150Z,88.83
2019-03-03T18:45:29.329Z,89.02
2019-03-03T18:47:58.611Z,89.02
2019-03-03T18:50:29.124Z,88.55
2019-03-03T18:53:00.040Z,88.65
2019-03-03T18:55:29.178Z,88.51
2019-03-03T18:57:58.356Z,88.18
2019-03-03T19:00:29.827Z,87.80
2019-03-03T19:02:59.177Z,86.87
2019-03-03T19:05:28.839Z,86.76
2019-03-03T19:07:58.029Z,86.40
2019-03-03T19:10:38.882Z,86.36
2019-03-03T19:13:08.120Z,87.36
2019-03-03T19:15:37.325Z,88.23
2019-03-03T19:18:06.585Z,88.23
2019-03-03T19:20:35.771Z,88.71
2019-03-03T19:23:05.192Z,88.50
2019-03-03T19:25:34.353Z,88.87
2019-03-03T19:28:04.227Z,88.25
2019-03-03T19:30:33.407Z,87.96
2019-03-03T19:33:08.543Z,87.47
2019-03-03T19:35:37.954Z,87.47
2019-03-03T19:38:07.306Z,87.01
2019-03-03T19:40:36.572Z,87.01
2019-03-03T19:43:06.085Z,86.87
2019-03-03T19:45:40.947Z,86.80
2019-03-03T19:48:11.029Z,86.73
2019-03-03T19:50:40.324Z,86.36
2019-03-03T19:53:09.493Z,86.33
2019-03-03T19:55:38.655Z,86.60
2019-03-03T19:58:07.975Z,86.69
2019-03-03T20:00:39.552Z,86.70
2019-03-03T20:03:09.116Z,86.70
2019-03-03T20:05:38.305Z,87.04
2019-03-03T20:08:07.908Z,87.05
2019-03-03T20:10:37.235Z,87.14
2019-03-03T20:13:06.768Z,87.14
2019-03-03T20:15:36.848Z,87.08
2019-03-03T20:18:24.038Z,87.02
2019-03-03T20:20:53.220Z,87.35
2019-03-03T20:23:22.424Z,86.92
2019-03-03T20:25:52.095Z,86.92
2019-03-03T20:28:21.283Z,86.51
2019-03-03T20:30:51.271Z,86.11
2019-03-03T20:33:20.448Z,86.11
2019-03-03T20:35:49.625Z,85.61
2019-03-03T20:38:18.800Z,85.00
2019-03-03T20:40:47.981Z,85.00
2019-03-03T20:43:17.150Z,84.69
2019-03-03T20:45:46.333Z,84.44
2019-03-03T20:48:15.516Z,84.44
2019-03-03T20:50:44.958Z,84.05
2019-03-03T20:53:14.137Z,83.63
2019-03-03T20:55:43.314Z,83.50
2019-03-03T20:58:12.986Z,83.66
2019-03-03T21:00:42.158Z,83.60
2019-03-03T21:03:11.373Z,83.46
2019-03-03T21:05:40.504Z,83.41
2019-03-03T21:08:09.900Z,83.41
2019-03-03T21:10:39.068Z,83.36
2019-03-03T21:13:08.234Z,83.51
2019-03-03T21:15:37.464Z,83.51
2019-03-03T21:18:06.633Z,83.35
2019-03-03T21:20:35.796Z,83.24
2019-03-03T21:23:04.988Z,83.17
2019-03-03T21:25:34.158Z,83.19
2019-03-03T21:28:03.329Z,83.88
2019-03-03T21:30:32.504Z,85.06
2019-03-03T21:33:01.904Z,85.82
2019-03-03T21:35:31.133Z,85.82
2019-03-03T21:38:00.310Z,85.45
2019-03-03T21:40:30.698Z,85.46
2019-03-03T21:43:00.069Z,85.14
2019-03-03T21:45:30.061Z,84.65
2019-03-03T21:47:59.216Z,84.21
2019-03-03T21:50:29.519Z,83.88
2019-03-03T21:52:58.755Z,84.08
2019-03-03T21:55:28.100Z,83.64
2019-03-03T21:57:57.273Z,83.31
2019-03-03T22:00:29.495Z,83.23
2019-03-03T22:02:58.936Z,83.30
2019-03-03T22:05:29.113Z,83.21
2019-03-03T22:07:59.503Z,83.12
2019-03-03T22:10:32.355Z,83.28
2019-03-03T22:13:03.280Z,83.16
2019-03-03T22:15:32.526Z,82.94
2019-03-03T22:18:01.709Z,83.17
2019-03-03T22:20:30.911Z,83.17
2019-03-03T22:23:01.601Z,83.43
2019-03-03T22:25:30.854Z,83.50
2019-03-03T22:28:00.044Z,83.39
2019-03-03T22:30:29.998Z,83.81
2019-03-03T22:32:59.174Z,83.59
2019-03-03T22:35:28.352Z,83.67
2019-03-03T22:37:58.209Z,83.90
2019-03-03T22:40:27.374Z,84.06
2019-03-03T22:42:56.713Z,84.09
2019-03-03T22:45:25.897Z,84.11
2019-03-03T22:47:55.065Z,84.07
2019-03-03T22:50:24.284Z,83.93
2019-03-03T22:52:53.450Z,83.81
2019-03-03T22:55:22.699Z,83.74
2019-03-03T22:57:51.887Z,83.87
2019-03-03T23:00:28.816Z,83.35
2019-03-03T23:02:57.997Z,83.52
2019-03-03T23:05:35.930Z,83.38
2019-03-03T23:08:08.155Z,83.43
2019-03-03T23:10:52.324Z,83.28
2019-03-03T23:13:30.082Z,83.34
2019-03-03T23:16:08.351Z,83.29
2019-03-03T23:18:49.693Z,83.40
2019-03-03T23:21:41.404Z,83.27
2019-03-03T23:24:19.490Z,83.14
2019-03-03T23:26:48.669Z,83.20
2019-03-03T23:29:17.836Z,83.08
2019-03-03T23:31:47.017Z,82.35
2019-03-03T23:34:16.190Z,81.99
2019-03-03T23:36:45.396Z,82.05
2019-03-03T23:39:14.861Z,82.27
2019-03-03T23:41:44.025Z,81.77
2019-03-03T23:44:13.224Z,81.37
2019-03-03T23:46:42.389Z,81.02
2019-03-03T23:49:11.570Z,81.17
2019-03-03T23:51:40.731Z,81.19
2019-03-03T23:54:09.899Z,81.13
2019-03-03T23:56:39.063Z,80.94
2019-03-03T23:59:08.159Z,80.90
